Station Historical Data
Daily Summary for July 18, 2017 Units:  English    Metric   Both
« Previous Day
Next Day »
Daily Weekly Monthly Yearly Custom
  High: Low: Average:
Temperature: 80.1 °F 60.8 °F 71.3 °F
Dew Point: 66.9 °F 56.1 °F 61.1 °F
Humidity: 93% 45% 72%
Wind Speed: 9.0mph 0.0mph 2.3mph
Wind Gust: 12.0mph - -
Wind- - WSW
Pressure: 30.10 in 30.03 in -
Precipitation: 0.00 in    
Historical Graphs
 
 
Tabular Data for July 18, 2017
Time Temperature Dew Point Pressure Wind Wind Speed Wind Gust Humidity Rainfall Rate (Hourly)
00:04 67.2 °F 63.2 °F 30.03 in Calm     87% 0.00 in
00:09 67.1 °F 63.1 °F 30.03 in Calm     87% 0.00 in
00:14 67.0 °F 63.0 °F 30.03 in Calm     87% 0.00 in
00:19 66.8 °F 63.1 °F 30.03 in Calm     88% 0.00 in
00:24 66.4 °F 62.7 °F 30.03 in Calm     88% 0.00 in
00:29 66.2 °F 62.5 °F 30.03 in Calm     88% 0.00 in
00:34 66.0 °F 62.3 °F 30.03 in Calm     88% 0.00 in
00:39 65.9 °F 62.2 °F 30.03 in Calm     88% 0.00 in
00:44 65.8 °F 62.5 °F 30.03 in Calm     89% 0.00 in
00:49 65.5 °F 62.2 °F 30.03 in Calm     89% 0.00 in
00:54 65.4 °F 62.1 °F 30.03 in Calm     89% 0.00 in
00:59 65.3 °F 62.0 °F 30.03 in Calm     89% 0.00 in
01:04 65.1 °F 61.8 °F 30.03 in Calm     89% 0.00 in
01:09 65.0 °F 61.7 °F 30.03 in Calm     89% 0.00 in
01:14 64.8 °F 61.5 °F 30.03 in Calm     89% 0.00 in
01:19 64.8 °F 61.5 °F 30.03 in Calm     89% 0.00 in
01:24 64.7 °F 61.4 °F 30.03 in Calm     89% 0.00 in
01:29 64.5 °F 61.2 °F 30.03 in Calm     89% 0.00 in
01:34 64.3 °F 61.0 °F 30.03 in Calm     89% 0.00 in
01:39 64.2 °F 61.2 °F 30.03 in Calm     90% 0.00 in
01:44 64.2 °F 61.2 °F 30.03 in South 2.0 mph 3.0 mph 90% 0.00 in
01:49 64.1 °F 61.1 °F 30.03 in Calm   3.0 mph 90% 0.00 in
01:54 63.8 °F 60.8 °F 30.03 in Calm     90% 0.00 in
01:59 63.8 °F 60.8 °F 30.03 in Calm     90% 0.00 in
02:04 63.7 °F 60.7 °F 30.03 in Calm   2.0 mph 90% 0.00 in
02:09 63.7 °F 60.7 °F 30.03 in Calm   2.0 mph 90% 0.00 in
02:14 63.5 °F 60.5 °F 30.03 in Calm   3.0 mph 90% 0.00 in
02:19 63.6 °F 60.6 °F 30.03 in Calm   4.0 mph 90% 0.00 in
02:24 63.5 °F 60.5 °F 30.03 in Calm   4.0 mph 90% 0.00 in
02:29 63.2 °F 60.2 °F 30.03 in Calm     90% 0.00 in
02:34 63.1 °F 60.1 °F 30.03 in Calm     90% 0.00 in
02:39 63.0 °F 60.0 °F 30.03 in Calm     90% 0.00 in
02:44 62.9 °F 59.9 °F 30.03 in Calm   1.0 mph 90% 0.00 in
02:49 62.7 °F 59.7 °F 30.03 in SSW 1.0 mph 2.0 mph 90% 0.00 in
02:54 62.7 °F 60.0 °F 30.03 in SSE 1.0 mph 2.0 mph 91% 0.00 in
02:59 62.8 °F 60.1 °F 30.03 in Calm   2.0 mph 91% 0.00 in
03:04 62.8 °F 60.1 °F 30.03 in Calm   3.0 mph 91% 0.00 in
03:09 62.8 °F 59.8 °F 30.03 in Calm   3.0 mph 90% 0.00 in
03:14 62.8 °F 60.1 °F 30.04 in Calm   3.0 mph 91% 0.00 in
03:19 62.6 °F 59.6 °F 30.03 in Calm     90% 0.00 in
03:24 62.7 °F 60.0 °F 30.03 in Calm     91% 0.00 in
03:29 62.7 °F 60.0 °F 30.04 in Calm     91% 0.00 in
03:34 62.6 °F 59.6 °F 30.03 in Calm     90% 0.00 in
03:39 62.4 °F 59.7 °F 30.03 in Calm     91% 0.00 in
03:44 62.4 °F 59.7 °F 30.03 in Calm   2.0 mph 91% 0.00 in
03:49 62.4 °F 59.7 °F 30.03 in Calm   1.0 mph 91% 0.00 in
03:54 62.4 °F 59.7 °F 30.03 in Calm     91% 0.00 in
03:59 62.5 °F 59.8 °F 30.03 in Calm     91% 0.00 in
04:04 62.5 °F 59.8 °F 30.03 in Calm     91% 0.00 in
04:09 62.4 °F 59.7 °F 30.04 in Calm     91% 0.00 in
04:14 62.4 °F 59.7 °F 30.04 in Calm     91% 0.00 in
04:19 62.4 °F 59.7 °F 30.04 in Calm   2.0 mph 91% 0.00 in
04:24 62.4 °F 59.7 °F 30.03 in Calm   2.0 mph 91% 0.00 in
04:29 62.4 °F 59.7 °F 30.03 in Calm     91% 0.00 in
04:34 62.3 °F 59.6 °F 30.03 in Calm     91% 0.00 in
04:39 62.3 °F 59.6 °F 30.03 in Calm   2.0 mph 91% 0.00 in
04:44 62.3 °F 59.6 °F 30.03 in Calm   2.0 mph 91% 0.00 in
04:49 62.2 °F 59.5 °F 30.03 in Calm   2.0 mph 91% 0.00 in
04:54 62.1 °F 59.4 °F 30.03 in Calm     91% 0.00 in
04:59 62.1 °F 59.4 °F 30.03 in Calm     91% 0.00 in
05:04 62.0 °F 59.3 °F 30.04 in Calm   1.0 mph 91% 0.00 in
05:09 61.8 °F 59.1 °F 30.04 in Calm     91% 0.00 in
05:14 61.8 °F 59.1 °F 30.04 in Calm     91% 0.00 in
05:19 61.6 °F 59.3 °F 30.04 in Calm     92% 0.00 in
05:24 61.3 °F 59.0 °F 30.04 in Calm     92% 0.00 in
05:29 61.1 °F 58.5 °F 30.05 in Calm     91% 0.00 in
05:34 60.9 °F 58.6 °F 30.05 in Calm     92% 0.00 in
05:39 60.9 °F 58.6 °F 30.05 in Calm     92% 0.00 in
05:44 60.8 °F 58.5 °F 30.05 in Calm     92% 0.00 in
05:49 60.9 °F 58.6 °F 30.05 in Calm     92% 0.00 in
05:54 61.1 °F 58.8 °F 30.05 in Calm     92% 0.00 in
05:59 61.3 °F 59.0 °F 30.05 in Calm     92% 0.00 in
06:04 61.4 °F 59.1 °F 30.06 in Calm     92% 0.00 in
06:09 61.6 °F 59.6 °F 30.06 in Calm   1.0 mph 93% 0.00 in
06:14 62.1 °F 60.1 °F 30.06 in Calm   3.0 mph 93% 0.00 in
06:19 62.5 °F 60.4 °F 30.06 in Calm   2.0 mph 93% 0.00 in
06:24 62.7 °F 60.6 °F 30.06 in Calm   3.0 mph 93% 0.00 in
06:29 63.0 °F 60.9 °F 30.06 in Calm   3.0 mph 93% 0.00 in
06:34 63.2 °F 60.8 °F 30.06 in Calm   4.0 mph 92% 0.00 in
06:39 63.4 °F 61.0 °F 30.06 in Calm   3.0 mph 92% 0.00 in
06:44 63.5 °F 61.1 °F 30.07 in South 1.0 mph 4.0 mph 92% 0.00 in
06:49 63.6 °F 61.2 °F 30.06 in South 2.0 mph 4.0 mph 92% 0.00 in
06:54 63.7 °F 61.3 °F 30.06 in SSW 2.0 mph 4.0 mph 92% 0.00 in
06:59 64.0 °F 61.3 °F 30.06 in South 2.0 mph 5.0 mph 91% 0.00 in
07:04 64.2 °F 61.5 °F 30.07 in SW 1.0 mph 6.0 mph 91% 0.00 in
07:09 64.4 °F 61.7 °F 30.07 in Calm   5.0 mph 91% 0.00 in
07:14 64.6 °F 61.9 °F 30.07 in SW 1.0 mph 5.0 mph 91% 0.00 in
07:19 64.9 °F 62.2 °F 30.07 in Calm     91% 0.00 in
07:24 65.2 °F 62.2 °F 30.07 in Calm     90% 0.00 in
07:29 65.6 °F 62.6 °F 30.08 in Calm   2.0 mph 90% 0.00 in
07:34 66.0 °F 63.0 °F 30.08 in Calm   3.0 mph 90% 0.00 in
07:39 66.1 °F 62.8 °F 30.08 in South 3.0 mph 6.0 mph 89% 0.00 in
07:44 66.5 °F 62.8 °F 30.08 in SW 2.0 mph 6.0 mph 88% 0.00 in
07:49 66.5 °F 62.8 °F 30.08 in SW 3.0 mph 6.0 mph 88% 0.00 in
07:54 66.9 °F 62.9 °F 30.08 in SSW 2.0 mph 4.0 mph 87% 0.00 in
07:59 67.2 °F 63.2 °F 30.08 in Calm   5.0 mph 87% 0.00 in
08:04 67.5 °F 63.5 °F 30.08 in SSW 3.0 mph 5.0 mph 87% 0.00 in
08:09 68.0 °F 64.0 °F 30.08 in SSW 2.0 mph 4.0 mph 87% 0.00 in
08:14 68.4 °F 64.0 °F 30.09 in SSW 2.0 mph 4.0 mph 86% 0.00 in
08:19 68.7 °F 64.3 °F 30.08 in SW 2.0 mph 6.0 mph 86% 0.00 in
08:24 69.1 °F 64.4 °F 30.09 in SW 3.0 mph 6.0 mph 85% 0.00 in
08:29 69.7 °F 65.0 °F 30.09 in SW 3.0 mph 6.0 mph 85% 0.00 in
08:34 69.5 °F 64.5 °F 30.09 in SW 3.0 mph 7.0 mph 84% 0.00 in
08:39 69.5 °F 64.5 °F 30.09 in SW 4.0 mph 7.0 mph 84% 0.00 in
08:44 70.1 °F 65.0 °F 30.09 in SW 3.0 mph 8.0 mph 84% 0.00 in
08:49 70.4 °F 65.0 °F 30.09 in SW 2.0 mph 8.0 mph 83% 0.00 in
08:54 70.5 °F 65.1 °F 30.09 in West 5.0 mph 6.0 mph 83% 0.00 in
08:59 70.3 °F 64.5 °F 30.09 in South 4.0 mph 6.0 mph 82% 0.00 in
09:04 70.3 °F 64.9 °F 30.09 in WSW 2.0 mph 6.0 mph 83% 0.00 in
09:09 71.3 °F 65.5 °F 30.09 in SSW 4.0 mph 7.0 mph 82% 0.00 in
09:14 71.9 °F 65.4 °F 30.09 in SW 3.0 mph 7.0 mph 80% 0.00 in
09:19 72.3 °F 66.1 °F 30.09 in WSW 3.0 mph 6.0 mph 81% 0.00 in
09:24 72.8 °F 66.3 °F 30.09 in SW 3.0 mph 7.0 mph 80% 0.00 in
09:29 73.4 °F 66.1 °F 30.09 in SW 3.0 mph 7.0 mph 78% 0.00 in
09:34 72.7 °F 65.4 °F 30.09 in WSW 3.0 mph 9.0 mph 78% 0.00 in
09:39 72.1 °F 64.9 °F 30.09 in WNW 4.0 mph 8.0 mph 78% 0.00 in
09:44 72.4 °F 65.9 °F 30.09 in SSW 6.0 mph 9.0 mph 80% 0.00 in
09:49 73.4 °F 66.1 °F 30.09 in WSW 4.0 mph 9.0 mph 78% 0.00 in
09:54 73.0 °F 66.1 °F 30.09 in WNW 8.0 mph 10.0 mph 79% 0.00 in
09:59 72.2 °F 65.0 °F 30.09 in WSW 4.0 mph 10.0 mph 78% 0.00 in
10:04 73.2 °F 66.3 °F 30.10 in WSW 3.0 mph 8.0 mph 79% 0.00 in
10:09 74.4 °F 66.3 °F 30.10 in WSW 5.0 mph 7.0 mph 76% 0.00 in
10:14 74.1 °F 66.0 °F 30.09 in WSW 4.0 mph 8.0 mph 76% 0.00 in
10:19 74.7 °F 65.9 °F 30.09 in SW 4.0 mph 11.0 mph 74% 0.00 in
10:24 75.2 °F 66.7 °F 30.09 in SW 3.0 mph 8.0 mph 75% 0.00 in
10:29 75.3 °F 66.0 °F 30.09 in West 2.0 mph 7.0 mph 73% 0.00 in
10:34 75.9 °F 65.8 °F 30.09 in SW 4.0 mph 7.0 mph 71% 0.00 in
10:39 75.6 °F 65.9 °F 30.09 in West 7.0 mph 9.0 mph 72% 0.00 in
10:44 75.8 °F 66.9 °F 30.09 in WSW 5.0 mph 9.0 mph 74% 0.00 in
10:49 75.9 °F 65.8 °F 30.09 in WSW 5.0 mph 10.0 mph 71% 0.00 in
10:54 74.6 °F 65.0 °F 30.09 in WSW 5.0 mph 10.0 mph 72% 0.00 in
10:59 74.1 °F 65.3 °F 30.09 in SW 4.0 mph 9.0 mph 74% 0.00 in
11:04 74.3 °F 65.5 °F 30.09 in West 3.0 mph 7.0 mph 74% 0.00 in
11:09 75.4 °F 65.7 °F 30.09 in WSW 6.0 mph 9.0 mph 72% 0.00 in
11:14 76.1 °F 65.6 °F 30.09 in WSW 5.0 mph 9.0 mph 70% 0.00 in
11:19 75.5 °F 64.6 °F 30.09 in SW 5.0 mph 10.0 mph 69% 0.00 in
11:24 76.4 °F 65.1 °F 30.09 in West 4.0 mph 9.0 mph 68% 0.00 in
11:29 76.8 °F 64.6 °F 30.09 in SW 5.0 mph 10.0 mph 66% 0.00 in
11:34 77.1 °F 64.0 °F 30.09 in WSW 4.0 mph 11.0 mph 64% 0.00 in
11:39 77.3 °F 62.8 °F 30.09 in WSW 5.0 mph 11.0 mph 61% 0.00 in
11:44 77.4 °F 62.9 °F 30.09 in WSW 5.0 mph 11.0 mph 61% 0.00 in
11:49 77.8 °F 62.8 °F 30.09 in WSW 5.0 mph 10.0 mph 60% 0.00 in
11:54 77.6 °F 61.7 °F 30.09 in SW 4.0 mph 9.0 mph 58% 0.00 in
11:59 77.6 °F 60.2 °F 30.09 in SW 4.0 mph 8.0 mph 55% 0.00 in
12:04 77.6 °F 61.2 °F 30.09 in SW 5.0 mph 10.0 mph 57% 0.00 in
12:09 78.0 °F 60.5 °F 30.09 in SW 3.0 mph 10.0 mph 55% 0.00 in
12:19 77.8 °F 61.3 °F 30.09 in WSW 2.0 mph 11.0 mph 57% 0.00 in
12:24 78.0 °F 60.5 °F 30.09 in SW 6.0 mph 10.0 mph 55% 0.00 in
12:29 78.5 °F 57.7 °F 30.09 in SW 4.0 mph 8.0 mph 49% 0.00 in
12:34 78.9 °F 60.3 °F 30.08 in WNW 3.0 mph 9.0 mph 53% 0.00 in
12:39 78.7 °F 62.2 °F 30.09 in SSW 4.0 mph 11.0 mph 57% 0.00 in
12:44 78.5 °F 59.9 °F 30.08 in WSW 5.0 mph 11.0 mph 53% 0.00 in
12:49 79.0 °F 60.9 °F 30.09 in West 5.0 mph 11.0 mph 54% 0.00 in
12:54 78.7 °F 60.1 °F 30.09 in West 5.0 mph 11.0 mph 53% 0.00 in
12:59 78.9 °F 59.8 °F 30.09 in WSW 4.0 mph 9.0 mph 52% 0.00 in
13:04 78.4 °F 59.9 °F 30.09 in NW 2.0 mph 11.0 mph 53% 0.00 in
13:09 79.3 °F 61.2 °F 30.09 in West 4.0 mph 8.0 mph 54% 0.00 in
13:14 79.1 °F 61.0 °F 30.09 in WSW 5.0 mph 10.0 mph 54% 0.00 in
13:19 79.0 °F 59.9 °F 30.09 in WSW 5.0 mph 10.0 mph 52% 0.00 in
13:24 79.3 °F 61.2 °F 30.08 in SW 6.0 mph 11.0 mph 54% 0.00 in
13:29 79.3 °F 60.7 °F 30.08 in SW 6.0 mph 11.0 mph 53% 0.00 in
13:34 79.3 °F 60.1 °F 30.08 in WSW 5.0 mph 12.0 mph 52% 0.00 in
13:39 79.1 °F 57.7 °F 30.08 in SW 5.0 mph 11.0 mph 48% 0.00 in
13:44 79.0 °F 59.3 °F 30.08 in West 6.0 mph 10.0 mph 51% 0.00 in
13:49 78.4 °F 58.8 °F 30.08 in WSW 5.0 mph 11.0 mph 51% 0.00 in
13:54 78.5 °F 58.9 °F 30.08 in WNW 2.0 mph 11.0 mph 51% 0.00 in
13:59 78.6 °F 59.0 °F 30.08 in West 7.0 mph 12.0 mph 51% 0.00 in
14:04 78.9 °F 57.5 °F 30.08 in West 6.0 mph 11.0 mph 48% 0.00 in
14:09 78.8 °F 56.9 °F 30.08 in South 5.0 mph 11.0 mph 47% 0.00 in
14:14 78.9 °F 58.1 °F 30.08 in SW 6.0 mph 12.0 mph 49% 0.00 in
14:19 78.8 °F 56.9 °F 30.08 in SW 6.0 mph 12.0 mph 47% 0.00 in
14:24 79.1 °F 57.7 °F 30.08 in WSW 6.0 mph 11.0 mph 48% 0.00 in
14:29 79.2 °F 56.6 °F 30.08 in SW 4.0 mph 10.0 mph 46% 0.00 in
14:34 79.3 °F 57.3 °F 30.08 in WSW 5.0 mph 10.0 mph 47% 0.00 in
14:39 79.3 °F 57.9 °F 30.07 in West 3.0 mph 9.0 mph 48% 0.00 in
14:44 79.1 °F 58.9 °F 30.07 in West 5.0 mph 10.0 mph 50% 0.00 in
14:49 79.3 °F 56.1 °F 30.07 in WSW 4.0 mph 9.0 mph 45% 0.00 in
14:54 79.8 °F 57.2 °F 30.08 in SW 8.0 mph 10.0 mph 46% 0.00 in
14:59 79.0 °F 57.0 °F 30.08 in WSW 8.0 mph 12.0 mph 47% 0.00 in
15:04 78.9 °F 57.5 °F 30.07 in WSW 7.0 mph 10.0 mph 48% 0.00 in
15:09 79.3 °F 57.3 °F 30.07 in West 6.0 mph 9.0 mph 47% 0.00 in
15:14 80.0 °F 59.7 °F 30.07 in West 6.0 mph 8.0 mph 50% 0.00 in
15:19 80.1 °F 60.3 °F 30.07 in WSW 4.0 mph 9.0 mph 51% 0.00 in
15:24 79.4 °F 58.0 °F 30.07 in WSW 5.0 mph 9.0 mph 48% 0.00 in
15:29 80.0 °F 59.7 °F 30.07 in WSW 4.0 mph 8.0 mph 50% 0.00 in
15:34 80.0 °F 61.3 °F 30.07 in SW 6.0 mph 10.0 mph 53% 0.00 in
15:39 79.4 °F 59.1 °F 30.06 in West 3.0 mph 7.0 mph 50% 0.00 in
15:44 79.2 °F 60.1 °F 30.06 in SW 4.0 mph 8.0 mph 52% 0.00 in
15:49 79.3 °F 58.5 °F 30.06 in WSW 5.0 mph 9.0 mph 49% 0.00 in
15:54 79.4 °F 59.7 °F 30.06 in SW 5.0 mph 9.0 mph 51% 0.00 in
15:59 79.3 °F 59.0 °F 30.06 in West 4.0 mph 9.0 mph 50% 0.00 in
16:04 79.2 °F 60.1 °F 30.05 in South 5.0 mph 7.0 mph 52% 0.00 in
16:09 79.7 °F 60.0 °F 30.05 in SW 5.0 mph 6.0 mph 51% 0.00 in
16:14 79.6 °F 59.3 °F 30.06 in WSW 4.0 mph 7.0 mph 50% 0.00 in
16:19 79.2 °F 59.0 °F 30.06 in SW 3.0 mph 7.0 mph 50% 0.00 in
16:24 79.1 °F 59.4 °F 30.06 in SW 5.0 mph 7.0 mph 51% 0.00 in
16:29 79.9 °F 60.2 °F 30.06 in WSW 4.0 mph 7.0 mph 51% 0.00 in
16:34 79.4 °F 58.6 °F 30.06 in WSW 3.0 mph 10.0 mph 49% 0.00 in
16:39 79.4 °F 59.7 °F 30.06 in SW 3.0 mph 7.0 mph 51% 0.00 in
16:44 79.9 °F 61.2 °F 30.06 in West 4.0 mph 7.0 mph 53% 0.00 in
16:49 79.9 °F 61.2 °F 30.06 in West 3.0 mph 8.0 mph 53% 0.00 in
16:54 79.7 °F 62.1 °F 30.05 in West 3.0 mph 8.0 mph 55% 0.00 in
16:59 79.6 °F 61.0 °F 30.06 in WSW 3.0 mph 9.0 mph 53% 0.00 in
17:04 79.4 °F 60.8 °F 30.05 in SW 5.0 mph 9.0 mph 53% 0.00 in
17:09 79.5 °F 62.4 °F 30.05 in WSW 5.0 mph 9.0 mph 56% 0.00 in
17:14 79.1 °F 61.0 °F 30.05 in SW 2.0 mph 8.0 mph 54% 0.00 in
17:19 79.3 °F 60.1 °F 30.05 in SW 4.0 mph 8.0 mph 52% 0.00 in
17:24 79.3 °F 60.7 °F 30.05 in WSW 7.0 mph 9.0 mph 53% 0.00 in
17:29 78.7 °F 60.1 °F 30.04 in West 5.0 mph 8.0 mph 53% 0.00 in
17:34 78.7 °F 61.2 °F 30.05 in SW 9.0 mph 9.0 mph 55% 0.00 in
17:39 79.1 °F 61.0 °F 30.05 in SW 4.0 mph 9.0 mph 54% 0.00 in
17:44 78.9 °F 60.8 °F 30.04 in SW 5.0 mph 9.0 mph 54% 0.00 in
17:49 78.5 °F 61.0 °F 30.04 in SW 4.0 mph 8.0 mph 55% 0.00 in
17:54 78.6 °F 61.1 °F 30.04 in SW 4.0 mph 8.0 mph 55% 0.00 in
17:59 78.6 °F 61.1 °F 30.04 in SW 4.0 mph 9.0 mph 55% 0.00 in
18:04 78.3 °F 62.3 °F 30.04 in SW 5.0 mph 9.0 mph 58% 0.00 in
18:09 78.4 °F 60.9 °F 30.04 in WSW 4.0 mph 9.0 mph 55% 0.00 in
18:14 78.3 °F 60.8 °F 30.04 in WSW 4.0 mph 8.0 mph 55% 0.00 in
18:19 78.0 °F 61.0 °F 30.04 in SW 7.0 mph 9.0 mph 56% 0.00 in
18:24 77.8 °F 60.3 °F 30.04 in WSW 6.0 mph 9.0 mph 55% 0.00 in
18:29 77.6 °F 60.7 °F 30.04 in SW 5.0 mph 9.0 mph 56% 0.00 in
18:34 77.5 °F 61.1 °F 30.04 in WNW 7.0 mph 10.0 mph 57% 0.00 in
18:39 77.5 °F 60.6 °F 30.04 in WNW 4.0 mph 8.0 mph 56% 0.00 in
18:44 77.4 °F 60.5 °F 30.05 in West 4.0 mph 9.0 mph 56% 0.00 in
18:49 77.2 °F 59.8 °F 30.05 in WSW 4.0 mph 9.0 mph 55% 0.00 in
18:54 77.0 °F 60.1 °F 30.05 in SW 5.0 mph 9.0 mph 56% 0.00 in
18:59 76.7 °F 59.8 °F 30.05 in WSW 3.0 mph 9.0 mph 56% 0.00 in
19:04 76.9 °F 60.0 °F 30.05 in WSW 5.0 mph 9.0 mph 56% 0.00 in
19:09 76.6 °F 60.2 °F 30.05 in WSW 5.0 mph 9.0 mph 57% 0.00 in
19:14 76.7 °F 60.3 °F 30.05 in WSW 4.0 mph 8.0 mph 57% 0.00 in
19:19 76.5 °F 60.6 °F 30.04 in WSW 3.0 mph 7.0 mph 58% 0.00 in
19:24 76.4 °F 60.0 °F 30.04 in SW 2.0 mph 7.0 mph 57% 0.00 in
19:29 76.4 °F 60.5 °F 30.04 in SSW 1.0 mph 5.0 mph 58% 0.00 in
19:34 76.1 °F 60.2 °F 30.04 in SW 4.0 mph 8.0 mph 58% 0.00 in
19:39 76.1 °F 60.2 °F 30.04 in SW 3.0 mph 8.0 mph 58% 0.00 in
19:44 76.0 °F 60.6 °F 30.05 in SW 3.0 mph 7.0 mph 59% 0.00 in
19:49 75.8 °F 60.4 °F 30.05 in West 1.0 mph 6.0 mph 59% 0.00 in
19:54 75.7 °F 60.4 °F 30.05 in SW 2.0 mph 7.0 mph 59% 0.00 in
19:59 75.5 °F 60.6 °F 30.05 in SW 2.0 mph 5.0 mph 60% 0.00 in
20:04 75.4 °F 60.5 °F 30.04 in West 3.0 mph 4.0 mph 60% 0.00 in
20:09 75.1 °F 59.8 °F 30.05 in West 2.0 mph 6.0 mph 59% 0.00 in
20:14 75.0 °F 60.6 °F 30.05 in WSW 3.0 mph 6.0 mph 61% 0.00 in
20:19 74.9 °F 61.0 °F 30.05 in West 3.0 mph 5.0 mph 62% 0.00 in
20:24 74.6 °F 60.7 °F 30.05 in West 3.0 mph 8.0 mph 62% 0.00 in
20:29 74.4 °F 60.5 °F 30.05 in West 1.0 mph 7.0 mph 62% 0.00 in
20:34 74.4 °F 60.5 °F 30.04 in West 2.0 mph 7.0 mph 62% 0.00 in
20:39 74.0 °F 60.6 °F 30.04 in West 1.0 mph 3.0 mph 63% 0.00 in
20:44 73.6 °F 60.7 °F 30.05 in Calm   1.0 mph 64% 0.00 in
20:49 73.2 °F 60.7 °F 30.05 in Calm   2.0 mph 65% 0.00 in
20:54 72.8 °F 60.8 °F 30.05 in West 1.0 mph 3.0 mph 66% 0.00 in
20:59 72.9 °F 61.3 °F 30.04 in WSW 1.0 mph 4.0 mph 67% 0.00 in
21:04 72.8 °F 61.6 °F 30.04 in Calm   2.0 mph 68% 0.00 in
21:09 72.4 °F 61.2 °F 30.04 in Calm   2.0 mph 68% 0.00 in
21:14 72.2 °F 61.5 °F 30.05 in Calm     69% 0.00 in
21:19 71.9 °F 61.6 °F 30.04 in Calm     70% 0.00 in
21:24 71.7 °F 61.8 °F 30.04 in Calm     71% 0.00 in
21:29 71.3 °F 61.8 °F 30.05 in Calm     72% 0.00 in
21:34 71.0 °F 61.9 °F 30.05 in Calm     73% 0.00 in
21:44 70.7 °F 62.0 °F 30.05 in Calm     74% 0.00 in
21:49 70.5 °F 61.8 °F 30.05 in Calm     74% 0.00 in
21:54 70.3 °F 61.6 °F 30.05 in Calm     74% 0.00 in
21:59 69.9 °F 61.6 °F 30.05 in Calm     75% 0.00 in
22:04 69.8 °F 61.5 °F 30.05 in Calm     75% 0.00 in
22:09 69.6 °F 61.3 °F 30.05 in Calm     75% 0.00 in
22:14 69.4 °F 61.5 °F 30.05 in Calm     76% 0.00 in
22:19 69.2 °F 61.3 °F 30.05 in Calm     76% 0.00 in
22:24 69.1 °F 61.2 °F 30.05 in Calm     76% 0.00 in
22:29 68.8 °F 61.3 °F 30.05 in Calm     77% 0.00 in
22:34 68.7 °F 61.2 °F 30.05 in Calm     77% 0.00 in
22:39 68.5 °F 61.0 °F 30.05 in Calm     77% 0.00 in
22:44 68.1 °F 60.6 °F 30.05 in Calm     77% 0.00 in
22:49 68.0 °F 60.9 °F 30.05 in Calm     78% 0.00 in
22:54 68.0 °F 60.9 °F 30.05 in Calm     78% 0.00 in
22:59 67.7 °F 60.6 °F 30.05 in Calm     78% 0.00 in
23:04 67.6 °F 60.9 °F 30.05 in Calm     79% 0.00 in
23:09 67.6 °F 60.9 °F 30.05 in Calm     79% 0.00 in
23:14 67.5 °F 60.4 °F 30.05 in Calm     78% 0.00 in
23:19 67.5 °F 60.0 °F 30.05 in Calm     77% 0.00 in
23:24 67.4 °F 59.6 °F 30.05 in Calm     76% 0.00 in
23:29 67.2 °F 59.0 °F 30.05 in Calm     75% 0.00 in
23:34 66.9 °F 58.3 °F 30.05 in Calm     74% 0.00 in
23:39 66.8 °F 58.2 °F 30.05 in Calm     74% 0.00 in
23:44 66.7 °F 58.1 °F 30.05 in Calm     74% 0.00 in
23:49 66.3 °F 58.1 °F 30.05 in Calm     75% 0.00 in
23:54 66.1 °F 57.9 °F 30.05 in Calm     75% 0.00 in
23:59 66.1 °F 57.9 °F 30.05 in Calm     75% 0.00 in
Buffalo, New York, USA
Compliments of Weather Underground - 2.5 mb